Time;durP1;ratioP1;P1;durP2;ratioP2;P2;SDS_P1;SDS_P2;PMS_P1;PMS_P2;Temp;Humidity;BMP_temperature;BMP_pressure;BME280_temperature;BME280_humidity;BME280_pressure;Samples;Min_cycle;Max_cycle;Signal;HPM_P1;HPM_P2
2021/11/11 00:00:35;;;;;;;128.23;30.80;;;9.50;90.50;;;;;;5025328;28;20100;-62
2021/11/11 00:03:01;;;;;;;121.03;30.88;;;9.50;90.40;;;;;;5023050;28;20045;-62
2021/11/11 00:05:26;;;;;;;138.38;31.17;;;9.50;90.40;;;;;;5022253;28;20047;-62
2021/11/11 00:07:52;;;;;;;129.95;33.28;;;9.50;90.40;;;;;;5008033;28;20416;-62
2021/11/11 00:10:18;;;;;;;112.53;35.30;;;9.50;90.40;;;;;;5044720;28;20314;-63
2021/11/11 00:12:44;;;;;;;133.95;36.08;;;9.50;90.30;;;;;;5045173;28;20094;-62
2021/11/11 00:15:11;;;;;;;113.82;34.88;;;9.50;90.30;;;;;;5023910;28;20484;-62
2021/11/11 00:17:37;;;;;;;122.20;35.95;;;9.40;90.30;;;;;;5005556;28;20033;-63
2021/11/11 00:20:07;;;;;;;118.05;33.72;;;9.40;90.40;;;;;;5025120;28;20044;-62
2021/11/11 00:22:32;;;;;;;108.25;35.42;;;9.40;90.40;;;;;;5032462;28;20059;-62
2021/11/11 00:24:58;;;;;;;105.60;37.80;;;9.40;90.30;;;;;;5027351;28;20119;-63
2021/11/11 00:27:23;;;;;;;103.30;38.80;;;9.30;90.30;;;;;;5038933;28;20029;-63
2021/11/11 00:29:49;;;;;;;95.53;36.80;;;9.30;90.40;;;;;;5024729;28;20033;-62
2021/11/11 00:32:15;;;;;;;85.70;34.85;;;9.30;90.40;;;;;;5023586;28;20491;-63
2021/11/11 00:34:40;;;;;;;95.28;34.28;;;9.30;90.50;;;;;;5042263;28;20037;-62
2021/11/11 00:37:07;;;;;;;86.05;35.20;;;9.30;90.50;;;;;;5043451;28;20025;-63
2021/11/11 00:39:32;;;;;;;97.97;36.53;;;9.30;90.50;;;;;;5041809;28;20036;-63
2021/11/11 00:41:58;;;;;;;92.25;34.83;;;9.30;90.50;;;;;;5041194;28;20025;-63
2021/11/11 00:44:23;;;;;;;82.03;34.25;;;9.30;90.50;;;;;;5041386;28;20120;-63
2021/11/11 00:46:49;;;;;;;86.75;32.95;;;9.20;90.50;;;;;;5023041;28;20080;-62
2021/11/11 00:49:14;;;;;;;92.35;32.92;;;9.20;90.40;;;;;;5041782;28;20472;-63
2021/11/11 00:51:40;;;;;;;82.88;30.92;;;9.20;90.50;;;;;;5043214;28;20396;-63
2021/11/11 00:54:06;;;;;;;81.78;31.25;;;9.20;90.40;;;;;;5039868;28;20381;-63
2021/11/11 00:56:32;;;;;;;83.85;32.72;;;9.20;90.40;;;;;;5040551;28;20148;-62
2021/11/11 00:58:58;;;;;;;77.18;30.17;;;9.20;90.40;;;;;;5040755;28;20036;-63
2021/11/11 01:01:27;;;;;;;85.85;30.58;;;9.20;90.40;;;;;;5039794;28;20021;-62
2021/11/11 01:03:53;;;;;;;67.22;28.33;;;9.10;90.30;;;;;;5042333;28;20028;-63
2021/11/11 01:06:19;;;;;;;67.72;29.25;;;9.10;90.40;;;;;;5025526;28;20024;-62
2021/11/11 01:08:44;;;;;;;70.10;28.77;;;9.10;90.40;;;;;;5039866;28;20040;-63
2021/11/11 01:11:10;;;;;;;69.53;28.90;;;9.10;90.40;;;;;;5022117;28;20830;-63
2021/11/11 01:13:36;;;;;;;71.47;29.85;;;9.10;90.40;;;;;;5042190;28;20036;-62
2021/11/11 01:16:02;;;;;;;66.35;28.45;;;9.10;90.40;;;;;;5039639;28;20032;-62
2021/11/11 01:18:27;;;;;;;78.68;29.15;;;9.10;90.40;;;;;;5040097;28;20078;-62
2021/11/11 01:20:53;;;;;;;66.13;29.20;;;9.00;90.40;;;;;;5041626;28;20051;-63
2021/11/11 01:23:18;;;;;;;67.13;28.70;;;9.00;90.40;;;;;;5057921;28;20061;-62
2021/11/11 01:25:44;;;;;;;60.22;28.17;;;9.00;90.40;;;;;;5040088;28;20129;-62
2021/11/11 01:28:10;;;;;;;79.70;28.48;;;9.00;90.40;;;;;;5041526;28;20592;-62
2021/11/11 01:30:40;;;;;;;63.30;27.75;;;9.00;90.40;;;;;;5041275;28;20120;-63
2021/11/11 01:33:06;;;;;;;62.78;27.30;;;8.90;90.30;;;;;;5040812;28;20515;-63
2021/11/11 01:35:31;;;;;;;54.47;25.52;;;8.90;90.40;;;;;;5039269;28;20037;-62
2021/11/11 01:37:57;;;;;;;62.05;26.52;;;9.00;90.50;;;;;;5040937;28;20033;-62
2021/11/11 01:40:22;;;;;;;49.92;26.10;;;8.90;90.40;;;;;;5040087;28;20120;-62
2021/11/11 01:42:50;;;;;;;48.22;25.73;;;8.90;90.50;;;;;;5040787;28;20903;-63
2021/11/11 01:45:16;;;;;;;55.03;24.95;;;8.90;90.40;;;;;;5020456;28;20040;-63
2021/11/11 01:47:41;;;;;;;61.83;25.23;;;8.90;90.40;;;;;;5037170;28;20380;-63
2021/11/11 01:50:08;;;;;;;45.33;24.35;;;8.90;90.40;;;;;;5023200;28;20029;-63
2021/11/11 01:52:34;;;;;;;59.45;25.60;;;8.80;90.40;;;;;;5022962;28;20124;-62
2021/11/11 01:54:59;;;;;;;55.28;26.20;;;8.80;90.50;;;;;;5042230;28;20123;-62
2021/11/11 01:57:25;;;;;;;59.25;24.98;;;8.80;90.50;;;;;;5041343;28;20035;-62
2021/11/11 01:59:52;;;;;;;45.38;24.05;;;8.80;90.50;;;;;;5040789;28;20052;-62
2021/11/11 02:02:27;;;;;;;51.17;25.48;;;8.80;90.50;;;;;;5039064;28;20028;-62
2021/11/11 02:04:53;;;;;;;;;;;8.80;90.50;;;;;;5005862;28;20048;-63
2021/11/11 02:07:18;;;;;;;40.95;24.67;;;8.80;90.50;;;;;;5039198;28;19912;-62
2021/11/11 02:09:44;;;;;;;56.60;25.73;;;8.80;90.40;;;;;;5039302;28;20037;-63
2021/11/11 02:12:10;;;;;;;44.92;25.17;;;8.70;90.40;;;;;;5040264;28;20040;-62
2021/11/11 02:14:35;;;;;;;47.45;23.63;;;8.70;90.50;;;;;;5041418;28;20396;-62
2021/11/11 02:17:01;;;;;;;54.08;24.80;;;8.70;90.50;;;;;;5035921;28;20075;-62
2021/11/11 02:19:26;;;;;;;45.88;23.90;;;8.70;90.50;;;;;;5039416;28;20147;-62
2021/11/11 02:21:55;;;;;;;41.47;23.92;;;8.70;90.50;;;;;;5018829;28;20095;-63
2021/11/11 02:24:20;;;;;;;45.58;22.63;;;8.60;90.50;;;;;;5041852;28;20045;-63
2021/11/11 02:26:46;;;;;;;51.60;22.92;;;8.60;90.50;;;;;;5021907;28;20624;-63
2021/11/11 02:29:12;;;;;;;40.92;22.30;;;8.60;90.50;;;;;;5039555;28;20159;-62
2021/11/11 02:31:37;;;;;;;42.63;23.58;;;8.60;90.50;;;;;;5024323;28;20157;-63
2021/11/11 02:34:03;;;;;;;37.42;22.67;;;8.60;90.60;;;;;;5024240;28;20037;-63
2021/11/11 02:36:28;;;;;;;49.17;22.77;;;8.60;90.60;;;;;;5032712;28;20033;-62
2021/11/11 02:38:54;;;;;;;39.00;21.95;;;8.60;90.60;;;;;;5038928;28;20033;-63
2021/11/11 02:41:20;;;;;;;43.55;21.83;;;8.60;90.60;;;;;;5040271;28;20032;-62
2021/11/11 02:43:46;;;;;;;41.80;21.80;;;8.50;90.60;;;;;;5023019;28;20033;-62
2021/11/11 02:46:11;;;;;;;41.00;22.83;;;8.50;90.60;;;;;;5021907;28;20113;-63
2021/11/11 02:48:37;;;;;;;33.95;21.00;;;8.50;90.70;;;;;;5039315;28;20040;-63
2021/11/11 02:51:02;;;;;;;39.03;22.40;;;8.50;90.70;;;;;;5005116;28;20021;-63
2021/11/11 02:53:28;;;;;;;41.45;21.42;;;8.50;90.70;;;;;;5022869;28;20400;-63
2021/11/11 02:55:53;;;;;;;37.13;21.48;;;8.50;90.70;;;;;;5001268;28;20416;-63
2021/11/11 02:58:19;;;;;;;33.13;20.23;;;8.50;90.60;;;;;;5021174;28;20408;-62
2021/11/11 03:00:50;;;;;;;34.97;20.90;;;8.50;90.60;;;;;;5022321;28;20463;-62
2021/11/11 03:03:16;;;;;;;32.00;20.58;;;8.50;90.60;;;;;;5020033;28;20733;-62
2021/11/11 03:05:41;;;;;;;34.13;21.05;;;8.50;90.60;;;;;;5020747;28;20047;-62
2021/11/11 03:08:07;;;;;;;32.17;20.77;;;8.40;90.70;;;;;;5019864;28;20032;-62
2021/11/11 03:10:33;;;;;;;31.40;20.05;;;8.40;90.70;;;;;;5004629;28;20044;-62
2021/11/11 03:12:59;;;;;;;37.97;19.95;;;8.40;90.70;;;;;;5024855;28;20829;-63
2021/11/11 03:15:26;;;;;;;38.25;21.40;;;8.40;90.70;;;;;;5022041;28;20040;-63
2021/11/11 03:17:51;;;;;;;38.33;22.67;;;8.40;90.70;;;;;;5020865;28;20143;-63
2021/11/11 03:20:17;;;;;;;36.72;21.83;;;8.40;90.70;;;;;;5038774;28;20134;-63
2021/11/11 03:22:45;;;;;;;42.28;21.98;;;8.40;90.70;;;;;;5012505;28;20136;-63
2021/11/11 03:25:13;;;;;;;41.50;23.08;;;8.40;90.70;;;;;;5040792;28;20124;-63
2021/11/11 03:27:39;;;;;;;48.45;21.77;;;8.40;90.70;;;;;;5040154;28;20037;-63
2021/11/11 03:30:09;;;;;;;37.17;21.60;;;8.40;90.70;;;;;;5036477;28;20025;-62
2021/11/11 03:32:35;;;;;;;35.47;21.17;;;8.40;90.70;;;;;;5039946;28;20047;-63
2021/11/11 03:35:00;;;;;;;33.92;21.65;;;8.30;90.70;;;;;;5024081;28;20044;-62
2021/11/11 03:37:26;;;;;;;35.03;19.83;;;8.30;90.70;;;;;;5039019;28;20029;-63
2021/11/11 03:39:51;;;;;;;37.35;21.95;;;8.30;90.70;;;;;;5040568;28;20075;-62
2021/11/11 03:42:17;;;;;;;37.35;20.60;;;8.30;90.70;;;;;;5041184;28;20036;-63
2021/11/11 03:44:43;;;;;;;37.08;21.38;;;8.30;90.80;;;;;;5039681;28;20045;-63
2021/11/11 03:47:08;;;;;;;35.50;20.17;;;8.30;90.70;;;;;;5037992;28;20034;-62
2021/11/11 03:49:35;;;;;;;37.15;20.90;;;8.30;90.80;;;;;;5041096;28;20033;-63
2021/11/11 03:52:01;;;;;;;33.78;19.65;;;8.30;90.80;;;;;;5042999;28;20116;-62
2021/11/11 03:54:27;;;;;;;31.50;20.38;;;8.30;90.80;;;;;;5025364;28;20052;-62
2021/11/11 03:56:55;;;;;;;34.33;19.77;;;8.30;90.80;;;;;;5040822;28;20056;-62
2021/11/11 03:59:21;;;;;;;32.22;19.98;;;8.30;90.80;;;;;;5041957;28;20457;-62
2021/11/11 04:01:47;;;;;;;33.63;20.35;;;8.20;90.80;;;;;;5040201;28;20062;-62
2021/11/11 04:04:12;;;;;;;36.58;20.83;;;8.20;90.80;;;;;;5043018;28;20044;-62
2021/11/11 04:06:38;;;;;;;32.55;21.50;;;8.20;90.90;;;;;;5041633;28;20484;-63
2021/11/11 04:09:03;;;;;;;30.63;21.13;;;8.20;90.90;;;;;;5042704;28;20110;-62
2021/11/11 04:11:30;;;;;;;30.30;20.75;;;8.20;90.90;;;;;;5041360;28;20033;-62
2021/11/11 04:13:55;;;;;;;35.13;21.45;;;8.20;90.90;;;;;;5042199;28;20044;-62
2021/11/11 04:16:21;;;;;;;29.10;20.08;;;8.20;90.90;;;;;;5027190;28;20036;-62
2021/11/11 04:18:46;;;;;;;37.88;21.50;;;8.10;90.90;;;;;;5042316;28;20116;-62
2021/11/11 04:21:12;;;;;;;29.02;20.90;;;8.20;90.90;;;;;;5042866;28;20036;-62
2021/11/11 04:23:37;;;;;;;26.10;19.40;;;8.10;90.90;;;;;;5041685;28;20590;-62
2021/11/11 04:26:15;;;;;;;29.48;20.02;;;8.10;90.90;;;;;;5040330;28;20029;-63
2021/11/11 04:31:21;;;;;;;31.50;19.40;;;8.10;90.90;;;;;;5042879;28;20064;-62
2021/11/11 04:33:48;;;;;;;29.90;19.65;;;8.10;90.90;;;;;;5041872;28;20387;-62
2021/11/11 04:42:00;;;;;;;34.40;18.73;;;8.10;90.90;;;;;;5040343;28;20045;-63
2021/11/11 04:47:11;;;;;;;27.45;19.33;;;8.10;90.90;;;;;;5042948;28;20186;-63
2021/11/11 05:00:24;;;;;;;31.00;18.08;;;8.00;90.90;;;;;;5042200;28;20036;-62
2021/11/11 05:05:21;;;;;;;28.83;17.60;;;8.00;91.00;;;;;;5040065;28;20032;-62
2021/11/11 05:07:47;;;;;;;25.58;18.55;;;8.00;91.00;;;;;;5038635;28;20098;-62
2021/11/11 05:10:14;;;;;;;24.48;17.13;;;8.00;91.00;;;;;;5044239;28;20025;-63
2021/11/11 05:12:39;;;;;;;23.40;16.98;;;8.00;91.00;;;;;;5024380;28;20068;-63
2021/11/11 05:15:05;;;;;;;22.85;17.02;;;8.10;91.00;;;;;;5038196;28;20085;-62
2021/11/11 05:17:31;;;;;;;22.95;16.42;;;8.00;91.00;;;;;;5022848;28;20842;-63
2021/11/11 05:19:56;;;;;;;23.48;16.70;;;8.10;91.10;;;;;;5038366;28;20045;-62
2021/11/11 05:22:22;;;;;;;25.30;17.23;;;8.00;91.00;;;;;;5038034;28;20037;-62
2021/11/11 05:24:47;;;;;;;24.00;16.85;;;8.10;91.00;;;;;;5040859;28;20476;-63
2021/11/11 05:27:14;;;;;;;26.60;18.50;;;8.00;91.00;;;;;;5041501;28;20021;-63
2021/11/11 05:29:40;;;;;;;30.83;21.60;;;8.00;91.00;;;;;;5037549;28;20028;-62
2021/11/11 05:32:06;;;;;;;29.63;22.45;;;8.10;91.00;;;;;;5040690;28;20033;-62
2021/11/11 05:34:31;;;;;;;29.25;21.50;;;8.10;91.10;;;;;;5038814;28;20029;-63
2021/11/11 05:36:57;;;;;;;29.67;20.70;;;8.00;91.00;;;;;;5041090;28;20029;-62
2021/11/11 05:39:22;;;;;;;27.25;21.02;;;8.30;91.10;;;;;;5038131;28;20381;-62
2021/11/11 05:41:48;;;;;;;28.92;19.48;;;8.10;91.10;;;;;;5035709;28;20044;-62
2021/11/11 05:44:13;;;;;;;29.27;20.30;;;8.00;91.00;;;;;;5041864;28;20063;-63
2021/11/11 05:46:39;;;;;;;31.23;21.92;;;8.00;91.00;;;;;;5037175;28;20340;-62
2021/11/11 05:49:04;;;;;;;32.33;22.20;;;8.00;91.00;;;;;;5023623;28;20112;-63
2021/11/11 05:51:30;;;;;;;33.88;22.80;;;8.00;91.00;;;;;;5037626;28;20285;-61
2021/11/11 05:53:55;;;;;;;30.15;21.63;;;8.00;91.10;;;;;;5039134;28;20085;-62
2021/11/11 05:56:21;;;;;;;33.90;22.05;;;8.00;91.10;;;;;;5038139;28;20017;-62
2021/11/11 05:58:46;;;;;;;27.77;20.75;;;7.90;91.10;;;;;;5020902;28;20502;-63
2021/11/11 06:01:12;;;;;;;30.33;20.40;;;8.00;91.10;;;;;;5038600;28;20033;-62
2021/11/11 06:03:38;;;;;;;27.15;19.88;;;8.00;91.10;;;;;;5025067;28;20555;-62
2021/11/11 06:06:03;;;;;;;23.63;18.95;;;8.00;91.10;;;;;;5022330;28;20214;-63
2021/11/11 06:08:29;;;;;;;27.38;20.42;;;7.90;91.10;;;;;;5022846;28;20418;-62
2021/11/11 06:10:54;;;;;;;27.20;20.17;;;8.00;91.10;;;;;;5038047;28;20094;-63
2021/11/11 06:13:22;;;;;;;32.13;22.52;;;8.00;91.10;;;;;;5040361;28;20068;-62
2021/11/11 06:15:47;;;;;;;30.80;22.83;;;7.90;91.10;;;;;;5037962;28;20069;-62
2021/11/11 06:18:13;;;;;;;31.02;22.20;;;8.00;91.20;;;;;;5038549;28;20061;-62
2021/11/11 06:20:45;;;;;;;32.65;23.48;;;7.90;91.10;;;;;;5039007;28;20064;-62
2021/11/11 06:23:11;;;;;;;28.40;21.95;;;7.90;91.10;;;;;;5038879;28;20049;-62
2021/11/11 06:25:37;;;;;;;32.63;23.08;;;7.90;91.10;;;;;;5038114;28;20453;-62
2021/11/11 06:28:03;;;;;;;29.02;22.05;;;7.90;91.10;;;;;;5040880;28;20079;-62
2021/11/11 06:30:28;;;;;;;30.55;21.45;;;7.90;91.20;;;;;;5040877;28;20498;-62
2021/11/11 06:32:54;;;;;;;30.95;21.42;;;7.90;91.20;;;;;;5040717;28;20025;-62
2021/11/11 06:35:20;;;;;;;30.95;20.45;;;7.90;91.10;;;;;;5038460;28;20032;-62
2021/11/11 06:37:45;;;;;;;25.92;19.48;;;7.90;91.10;;;;;;5026012;28;20040;-63
2021/11/11 06:40:11;;;;;;;28.63;21.48;;;7.90;91.50;;;;;;5039653;28;20468;-62
2021/11/11 06:42:37;;;;;;;30.67;20.20;;;7.90;91.20;;;;;;5041080;28;20519;-63
2021/11/11 06:45:03;;;;;;;30.15;20.60;;;7.90;91.20;;;;;;5039213;28;20128;-63
2021/11/11 06:47:29;;;;;;;29.38;20.15;;;7.90;91.20;;;;;;5038551;28;20099;-62
2021/11/11 06:49:54;;;;;;;25.08;20.45;;;7.90;91.20;;;;;;5037725;28;20063;-62
2021/11/11 06:52:20;;;;;;;28.48;19.92;;;7.90;91.20;;;;;;5035569;28;20381;-62
2021/11/11 06:54:46;;;;;;;28.88;20.52;;;7.90;91.20;;;;;;5038962;28;20660;-63
2021/11/11 06:57:13;;;;;;;27.40;19.48;;;7.90;91.20;;;;;;5041051;28;20017;-63
2021/11/11 06:59:39;;;;;;;26.02;19.67;;;7.90;91.20;;;;;;5038175;28;20026;-62
2021/11/11 07:02:04;;;;;;;25.98;18.98;;;7.90;91.30;;;;;;5039157;28;20044;-62
2021/11/11 07:04:30;;;;;;;25.42;18.35;;;7.90;91.20;;;;;;5039137;28;20052;-60
2021/11/11 07:06:55;;;;;;;24.88;17.48;;;7.90;91.20;;;;;;5039763;28;20033;-63
2021/11/11 07:09:21;;;;;;;23.33;19.58;;;7.90;91.20;;;;;;5040021;28;20041;-62
2021/11/11 07:11:46;;;;;;;27.10;18.38;;;7.90;91.20;;;;;;5038749;28;20044;-62
2021/11/11 07:14:12;;;;;;;23.80;17.35;;;7.80;91.20;;;;;;5036765;28;20037;-62
2021/11/11 07:16:38;;;;;;;27.58;18.80;;;7.80;91.20;;;;;;5041863;28;20108;-62
2021/11/11 07:19:04;;;;;;;25.05;17.55;;;7.80;91.30;;;;;;5039779;28;20107;-63
2021/11/11 07:21:29;;;;;;;21.50;16.90;;;7.90;91.30;;;;;;5040389;28;20031;-62
2021/11/11 07:23:55;;;;;;;25.17;17.15;;;7.90;91.60;;;;;;5041266;28;20045;-62
2021/11/11 07:26:20;;;;;;;30.50;17.77;;;7.80;91.20;;;;;;5008009;28;20052;-63
2021/11/11 07:28:46;;;;;;;26.88;16.55;;;7.80;91.30;;;;;;5024463;28;20048;-62
2021/11/11 07:31:12;;;;;;;26.70;17.65;;;7.80;91.30;;;;;;5024899;28;20053;-62
2021/11/11 07:33:37;;;;;;;28.42;17.75;;;7.80;91.20;;;;;;5025248;28;20459;-62
2021/11/11 07:36:03;;;;;;;23.27;16.52;;;7.80;91.50;;;;;;5021363;28;20044;-62
2021/11/11 07:38:29;;;;;;;32.47;17.20;;;7.80;91.30;;;;;;5006054;28;20041;-62
2021/11/11 07:40:54;;;;;;;28.17;17.92;;;7.80;91.20;;;;;;5024189;28;20036;-62
2021/11/11 07:43:20;;;;;;;31.05;19.40;;;7.90;91.20;;;;;;5025982;28;20427;-62
2021/11/11 07:45:46;;;;;;;39.55;18.40;;;7.80;91.20;;;;;;5025275;28;20115;-62
2021/11/11 07:48:12;;;;;;;28.38;17.23;;;7.80;91.20;;;;;;5024152;28;20025;-62
2021/11/11 07:50:40;;;;;;;31.15;17.17;;;7.80;91.20;;;;;;5045438;28;20047;-62
2021/11/11 07:53:09;;;;;;;28.38;18.88;;;7.80;91.20;;;;;;5025396;28;20113;-62
2021/11/11 07:55:35;;;;;;;30.98;19.25;;;7.80;91.20;;;;;;5023462;28;20472;-62
2021/11/11 07:58:02;;;;;;;37.13;19.10;;;7.80;91.30;;;;;;5021118;28;20045;-62
2021/11/11 08:00:27;;;;;;;21.85;16.75;;;7.80;91.30;;;;;;5026014;28;20032;-62
2021/11/11 08:02:53;;;;;;;40.35;18.02;;;7.80;91.30;;;;;;5025685;28;20048;-62
2021/11/11 08:05:19;;;;;;;24.50;18.20;;;7.80;91.30;;;;;;5011344;28;20159;-62
2021/11/11 08:07:46;;;;;;;32.40;18.55;;;7.80;91.30;;;;;;5024029;28;20052;-63
2021/11/11 08:10:12;;;;;;;34.38;17.80;;;7.80;91.30;;;;;;5010552;28;20040;-62
2021/11/11 08:12:39;;;;;;;29.20;17.48;;;7.80;91.30;;;;;;5024576;28;20049;-62
2021/11/11 08:15:05;;;;;;;29.48;16.83;;;7.70;91.30;;;;;;5043179;28;20048;-62
2021/11/11 08:17:30;;;;;;;33.70;17.67;;;7.70;91.30;;;;;;5040648;28;20075;-63
2021/11/11 08:19:56;;;;;;;31.00;17.75;;;7.70;91.30;;;;;;5024772;28;20037;-62
2021/11/11 08:22:23;;;;;;;46.03;18.75;;;7.70;91.30;;;;;;5041365;28;20530;-63
2021/11/11 08:24:49;;;;;;;38.08;19.10;;;7.70;91.40;;;;;;5007845;28;20039;-63
2021/11/11 08:27:14;;;;;;;38.75;18.48;;;7.70;91.50;;;;;;5020677;28;20044;-62
2021/11/11 08:29:40;;;;;;;56.22;19.52;;;7.70;91.50;;;;;;5041963;28;20493;-63
2021/11/11 08:32:06;;;;;;;55.95;19.10;;;7.70;91.50;;;;;;5024708;28;20029;-63
2021/11/11 08:34:32;;;;;;;34.58;19.60;;;7.70;91.50;;;;;;5024218;28;20040;-62
2021/11/11 08:36:58;;;;;;;36.60;19.38;;;7.70;91.60;;;;;;5007361;28;20118;-63
2021/11/11 08:39:23;;;;;;;39.47;19.75;;;7.60;91.60;;;;;;5011764;28;20064;-62
2021/11/11 08:41:50;;;;;;;51.80;22.40;;;7.70;91.60;;;;;;5006130;28;20111;-64
2021/11/11 08:44:15;;;;;;;52.50;20.67;;;7.70;91.70;;;;;;5023759;28;20075;-65
2021/11/11 08:46:41;;;;;;;68.93;22.45;;;7.70;91.70;;;;;;5039697;28;20542;-63
2021/11/11 08:49:06;;;;;;;118.15;24.30;;;7.70;91.70;;;;;;5019572;28;20548;-65
2021/11/11 08:51:34;;;;;;;83.65;23.10;;;7.70;91.70;;;;;;5023560;28;20037;-62
2021/11/11 08:54:03;;;;;;;69.75;22.52;;;7.70;91.80;;;;;;5042787;28;20611;-62
2021/11/11 08:56:30;;;;;;;67.10;23.38;;;7.70;91.80;;;;;;5007978;28;20052;-62
2021/11/11 08:58:57;;;;;;;63.83;21.88;;;7.70;91.80;;;;;;5034654;28;20045;-62
2021/11/11 09:01:22;;;;;;;68.03;21.42;;;7.70;91.80;;;;;;5005955;28;20078;-63
2021/11/11 09:03:48;;;;;;;47.38;19.98;;;7.70;91.90;;;;;;5041081;28;20045;-63
2021/11/11 09:06:13;;;;;;;71.93;21.80;;;7.70;91.90;;;;;;5021403;28;20033;-62
2021/11/11 09:08:39;;;;;;;66.57;21.38;;;7.70;91.90;;;;;;5043787;28;20037;-62
2021/11/11 09:11:04;;;;;;;51.70;21.17;;;7.70;91.90;;;;;;5038383;28;20132;-63
2021/11/11 09:13:31;;;;;;;305.55;34.58;;;7.70;92.00;;;;;;5026600;28;20124;-62
2021/11/11 09:15:57;;;;;;;498.58;51.28;;;7.80;92.30;;;;;;5023836;28;20029;-62
2021/11/11 09:18:23;;;;;;;403.20;55.40;;;7.80;92.70;;;;;;5040534;28;20043;-62
2021/11/11 09:20:48;;;;;;;244.18;38.33;;;7.90;93.80;;;;;;5041680;28;20037;-62
2021/11/11 09:23:14;;;;;;;81.20;25.70;;;7.90;93.40;;;;;;5040117;28;20048;-62
2021/11/11 09:25:40;;;;;;;70.57;24.90;;;8.00;92.40;;;;;;5038899;28;20567;-63
2021/11/11 09:28:06;;;;;;;83.43;24.55;;;8.00;92.10;;;;;;5019446;28;20037;-62
2021/11/11 09:30:33;;;;;;;97.35;25.80;;;8.00;92.30;;;;;;5020871;28;20091;-63
2021/11/11 09:32:59;;;;;;;99.13;24.98;;;8.00;92.00;;;;;;5024768;28;20510;-62
2021/11/11 09:35:25;;;;;;;79.85;24.15;;;7.90;92.00;;;;;;5005632;28;20037;-63
2021/11/11 09:37:51;;;;;;;94.78;24.38;;;7.90;92.10;;;;;;5043056;28;20087;-63
2021/11/11 09:40:19;;;;;;;57.10;22.60;;;8.00;92.10;;;;;;5008034;28;20100;-62
2021/11/11 09:42:45;;;;;;;44.22;22.08;;;7.90;92.10;;;;;;5023329;28;20044;-63
2021/11/11 09:45:11;;;;;;;51.83;22.83;;;7.90;92.20;;;;;;5020736;28;20027;-62
2021/11/11 09:47:37;;;;;;;47.70;23.73;;;7.90;92.30;;;;;;5039011;28;20040;-62
2021/11/11 09:50:04;;;;;;;45.72;21.83;;;7.90;92.70;;;;;;5021183;28;20037;-62
2021/11/11 09:52:30;;;;;;;44.22;23.77;;;7.90;92.40;;;;;;5007375;28;20060;-63
2021/11/11 10:00:26;;;;;;;37.63;21.95;;;7.90;92.50;;;;;;5037280;28;20032;-63
2021/11/11 10:02:55;;;;;;;36.13;23.25;;;7.90;92.50;;;;;;5040176;28;20043;-62
2021/11/11 10:05:21;;;;;;;53.15;24.80;;;7.90;92.50;;;;;;5024962;28;20032;-62
2021/11/11 10:07:47;;;;;;;48.72;23.98;;;7.90;92.60;;;;;;5022286;28;20052;-62
2021/11/11 10:10:37;;;;;;;49.85;24.73;;;8.00;92.60;;;;;;5021671;28;20028;-62
2021/11/11 10:13:17;;;;;;;45.38;26.08;;;8.00;92.70;;;;;;5019675;28;20122;-62
2021/11/11 10:16:14;;;;;;;60.33;25.23;;;8.10;93.00;;;;;;5004685;28;20489;-62
2021/11/11 10:18:43;;;;;;;55.58;23.60;;;8.10;93.00;;;;;;5004012;28;20032;-62
2021/11/11 10:21:26;;;;;;;53.78;25.13;;;8.10;92.90;;;;;;5021487;28;20563;-62
2021/11/11 10:23:52;;;;;;;49.13;25.13;;;8.10;92.80;;;;;;5038530;28;20060;-62
2021/11/11 10:26:20;;;;;;;46.67;24.55;;;8.10;92.90;;;;;;5020471;28;20035;-62
2021/11/11 10:28:45;;;;;;;49.90;25.35;;;8.20;92.80;;;;;;5036826;28;20017;-63
2021/11/11 10:31:16;;;;;;;72.82;25.80;;;8.20;92.80;;;;;;5033457;28;20082;-62
2021/11/11 10:34:03;;;;;;;45.65;24.70;;;8.30;92.80;;;;;;5034095;28;20029;-62
2021/11/11 10:36:38;;;;;;;62.22;24.92;;;8.20;92.70;;;;;;5038252;28;20582;-63
2021/11/11 10:39:24;;;;;;;69.20;25.42;;;8.30;92.70;;;;;;5039515;28;20037;-62
2021/11/11 10:41:51;;;;;;;65.30;25.38;;;8.30;92.60;;;;;;5035337;28;20053;-62
2021/11/11 10:44:24;;;;;;;52.75;25.52;;;8.40;92.60;;;;;;5038969;28;20132;-62
2021/11/11 10:46:53;;;;;;;71.82;27.40;;;8.40;92.60;;;;;;5039177;28;20025;-62
2021/11/11 10:49:29;;;;;;;81.10;29.15;;;8.40;92.60;;;;;;5038297;28;20018;-63
2021/11/11 10:51:55;;;;;;;62.33;28.05;;;8.40;92.80;;;;;;5041226;28;20114;-62
2021/11/11 10:54:21;;;;;;;62.03;26.48;;;8.40;92.80;;;;;;5022692;28;20524;-63
2021/11/11 10:56:47;;;;;;;61.00;27.13;;;8.40;92.60;;;;;;5038317;28;20044;-62
2021/11/11 10:59:18;;;;;;;63.00;28.15;;;8.40;92.70;;;;;;5039788;28;20151;-63
2021/11/11 11:01:44;;;;;;;76.25;28.63;;;8.50;92.80;;;;;;5039921;28;20017;-62
2021/11/11 11:04:29;;;;;;;70.07;30.20;;;8.50;92.80;;;;;;5040886;28;20391;-62
2021/11/11 11:07:11;;;;;;;84.53;30.00;;;8.40;92.90;;;;;;5039804;28;20094;-62
2021/11/11 11:09:38;;;;;;;68.25;30.20;;;8.50;92.80;;;;;;5039927;28;20048;-63
2021/11/11 11:12:05;;;;;;;50.92;28.42;;;8.50;92.80;;;;;;5040329;28;20048;-62
2021/11/11 11:14:31;;;;;;;58.55;28.00;;;8.50;92.70;;;;;;5039591;28;20037;-63
2021/11/11 11:16:56;;;;;;;48.35;26.60;;;8.50;92.70;;;;;;5008416;28;20033;-62
2021/11/11 11:19:22;;;;;;;72.30;28.08;;;8.50;92.60;;;;;;5022461;28;20057;-63
2021/11/11 11:21:52;;;;;;;59.15;27.75;;;8.50;92.70;;;;;;5037792;28;21691;-63
2021/11/11 11:24:23;;;;;;;51.72;26.90;;;8.60;92.70;;;;;;5022612;28;20104;-62
2021/11/11 11:26:57;;;;;;;51.25;28.20;;;8.50;92.70;;;;;;5023157;28;20037;-62
2021/11/11 11:29:32;;;;;;;56.08;27.17;;;8.60;92.90;;;;;;5024917;28;20128;-62
2021/11/11 11:32:22;;;;;;;69.00;28.42;;;8.60;92.90;;;;;;5026727;28;20044;-62
2021/11/11 11:34:49;;;;;;;61.63;29.70;;;8.60;92.90;;;;;;5024147;28;20120;-62
2021/11/11 11:37:22;;;;;;;72.50;29.17;;;8.60;92.90;;;;;;5005705;28;20032;-63
2021/11/11 11:39:53;;;;;;;51.78;27.95;;;8.70;92.90;;;;;;5028669;28;20029;-62
2021/11/11 11:42:30;;;;;;;61.17;26.98;;;8.70;92.80;;;;;;5043236;28;20032;-62
2021/11/11 11:45:06;;;;;;;55.28;29.20;;;8.70;92.80;;;;;;5025828;28;20052;-62
2021/11/11 11:50:10;;;;;;;53.35;29.17;;;8.70;92.90;;;;;;5039699;28;19915;-62
2021/11/11 11:52:37;;;;;;;60.13;32.22;;;8.70;92.80;;;;;;5026058;28;20037;-62
2021/11/11 11:55:19;;;;;;;55.08;34.40;;;8.70;93.00;;;;;;5027560;28;20395;-62
2021/11/11 12:06:02;;;;;;;64.45;32.83;;;8.70;93.00;;;;;;5038993;28;20429;-62
2021/11/11 12:11:25;;;;;;;67.30;31.17;;;8.80;93.30;;;;;;5015910;28;20145;-62
2021/11/11 12:39:42;;;;;;;42.72;28.52;;;9.00;93.40;;;;;;5027509;28;20040;-63
2021/11/11 12:42:08;;;;;;;55.13;29.27;;;9.00;93.40;;;;;;5020476;28;20021;-62
2021/11/11 12:44:34;;;;;;;40.42;28.55;;;9.00;93.60;;;;;;5024208;28;20480;-63
2021/11/11 12:47:00;;;;;;;49.15;29.40;;;9.00;93.60;;;;;;5021558;28;20051;-62
2021/11/11 12:49:35;;;;;;;47.95;27.77;;;9.00;93.60;;;;;;5038786;28;20025;-63
2021/11/11 12:52:13;;;;;;;46.83;28.88;;;9.10;93.60;;;;;;5020209;28;20056;-63
2021/11/11 12:54:39;;;;;;;39.47;27.63;;;9.10;93.70;;;;;;5019696;28;20025;-63
2021/11/11 12:57:05;;;;;;;42.58;29.92;;;9.10;93.70;;;;;;5019324;28;20359;-63
2021/11/11 12:59:34;;;;;;;40.22;28.20;;;9.10;93.70;;;;;;5021073;28;20033;-63
2021/11/11 13:02:05;;;;;;;40.03;26.50;;;9.10;93.80;;;;;;5038460;28;20037;-63
2021/11/11 13:04:47;;;;;;;43.00;26.52;;;9.20;93.80;;;;;;5020613;28;20036;-63
2021/11/11 13:07:30;;;;;;;44.28;26.23;;;9.20;93.80;;;;;;5023104;28;20052;-62
2021/11/11 13:10:15;;;;;;;39.97;26.27;;;9.20;93.80;;;;;;5008153;28;20415;-63
2021/11/11 13:12:41;;;;;;;42.03;27.13;;;9.20;93.90;;;;;;5025826;28;20443;-62
2021/11/11 13:15:13;;;;;;;53.03;27.50;;;9.30;93.80;;;;;;5005822;28;20472;-63
2021/11/11 13:17:45;;;;;;;43.40;28.33;;;9.30;94.00;;;;;;5025038;28;20044;-62
2021/11/11 13:20:30;;;;;;;42.38;27.30;;;9.30;94.00;;;;;;5021577;28;20033;-62
2021/11/11 13:23:05;;;;;;;136.45;33.00;;;9.30;94.00;;;;;;5015532;28;20047;-62
2021/11/11 13:25:55;;;;;;;301.67;40.08;;;9.40;94.00;;;;;;5042429;28;20123;-62
2021/11/11 13:43:34;;;;;;;90.38;32.78;;;9.40;94.10;;;;;;5040678;28;20108;-62
2021/11/11 13:54:16;;;;;;;89.80;30.55;;;9.60;93.50;;;;;;5041970;28;20044;-62
2021/11/11 14:00:25;;;;;;;79.90;28.75;;;9.70;93.70;;;;;;5040676;28;20056;-62
2021/11/11 15:14:44;;;;;;;72.45;31.75;;;10.30;93.40;;;;;;5041272;28;20048;-63
2021/11/11 15:45:01;;;;;;;114.55;34.40;;;10.30;93.70;;;;;;5042972;28;20059;-63
2021/11/11 16:01:14;;;;;;;91.80;35.28;;;10.30;93.30;;;;;;5040357;28;20502;-63
2021/11/11 16:20:22;;;;;;;188.00;43.67;;;10.30;93.60;;;;;;5040542;28;20813;-63
2021/11/11 16:25:37;;;;;;;157.07;38.38;;;10.30;94.00;;;;;;5025525;28;19909;-62